Time;durP1;ratioP1;P1;durP2;ratioP2;P2;SDS_P1;SDS_P2;PMS_P1;PMS_P2;Temp;Humidity;BMP_temperature;BMP_pressure;BME280_temperature;BME280_humidity;BME280_pressure;Samples;Min_cycle;Max_cycle;Signal;HPM_P1;HPM_P2
2021/09/12 00:02:12;;;;;;;;;;;24.00;51.50;;;;;;5074149;28;20308;-69
2021/09/12 00:04:39;;;;;;;;;;;24.00;50.90;;;;;;5075000;28;19948;-69
2021/09/12 00:07:05;;;;;;;;;;;23.90;51.00;;;;;;5074502;28;20370;-70
2021/09/12 00:09:32;;;;;;;;;;;23.90;50.50;;;;;;5074557;28;19909;-69
2021/09/12 00:11:59;;;;;;;;;;;23.90;51.10;;;;;;5075924;28;19915;-69
2021/09/12 00:14:26;;;;;;;;;;;23.90;50.80;;;;;;5074369;28;19909;-68
2021/09/12 00:16:53;;;;;;;;;;;24.00;51.70;;;;;;5073832;28;20328;-69
2021/09/12 00:19:20;;;;;;;;;;;24.00;50.60;;;;;;5073157;28;19909;-69
2021/09/12 00:21:46;;;;;;;;;;;24.10;50.40;;;;;;5073299;28;19909;-70
2021/09/12 00:24:13;;;;;;;;;;;24.10;51.30;;;;;;5073393;28;19908;-70
2021/09/12 00:26:40;;;;;;;;;;;24.20;50.30;;;;;;5073446;28;19997;-70
2021/09/12 00:29:06;;;;;;;;;;;24.30;49.80;;;;;;5073173;28;19915;-69
2021/09/12 00:31:33;;;;;;;;;;;24.50;49.10;;;;;;5073233;28;20363;-69
2021/09/12 00:34:00;;;;;;;;;;;24.50;49.10;;;;;;5072470;28;20278;-69
2021/09/12 00:36:26;;;;;;;;;;;24.60;50.20;;;;;;5072826;28;19956;-70
2021/09/12 00:38:53;;;;;;;;;;;24.40;51.20;;;;;;5072748;28;19909;-69
2021/09/12 00:41:20;;;;;;;;;;;24.50;50.30;;;;;;5072999;28;19908;-69
2021/09/12 00:43:46;;;;;;;;;;;24.70;49.40;;;;;;5072808;28;19908;-69
2021/09/12 00:46:14;;;;;;;;;;;25.10;48.60;;;;;;5072566;28;19908;-70
2021/09/12 00:48:42;;;;;;;;;;;25.10;49.20;;;;;;5072121;28;20260;-69
2021/09/12 00:51:08;;;;;;;;;;;25.10;48.30;;;;;;5072939;28;19909;-69
2021/09/12 00:53:38;;;;;;;;;;;25.20;49.10;;;;;;5072741;28;19948;-68
2021/09/12 00:56:05;;;;;;;;;;;25.30;47.80;;;;;;5072709;28;19917;-68
2021/09/12 00:58:33;;;;;;;;;;;25.40;47.80;;;;;;5072694;28;19912;-69
2021/09/12 01:01:00;;;;;;;;;;;25.30;48.20;;;;;;5072536;28;20241;-69
2021/09/12 01:03:26;;;;;;;;;;;25.30;48.30;;;;;;5072006;28;19916;-69
2021/09/12 01:05:53;;;;;;;;;;;25.80;47.80;;;;;;5072719;28;19915;-69
2021/09/12 01:08:20;;;;;;;;;;;26.20;46.90;;;;;;5073979;28;19935;-68
2021/09/12 01:10:48;;;;;;;;;;;26.90;46.00;;;;;;5075641;28;19977;-69
2021/09/12 01:13:18;;;;;;;;;;;27.00;46.80;;;;;;5075610;28;19915;-70
2021/09/12 01:15:48;;;;;;;;;;;27.40;47.00;;;;;;5108830;28;19996;-68
2021/09/12 01:18:15;;;;;;;;;;;28.10;45.90;;;;;;5109184;28;19913;-69
2021/09/12 01:20:42;;;;;;;;;;;28.10;45.80;;;;;;5073541;28;20363;-69
2021/09/12 01:23:08;;;;;;;;;;;28.10;46.00;;;;;;5075337;28;19915;-70
2021/09/12 01:25:35;;;;;;;;;;;28.40;46.40;;;;;;5073968;28;19916;-69
2021/09/12 01:28:05;;;;;;;;;;;28.30;45.00;;;;;;5074130;28;19912;-69
2021/09/12 01:30:32;;;;;;;;;;;27.90;45.00;;;;;;5074880;28;19920;-70
2021/09/12 01:32:58;;;;;;;;;;;27.70;45.00;;;;;;5072501;28;19912;-70
2021/09/12 01:35:26;;;;;;;;;;;27.40;46.10;;;;;;5072501;28;20030;-68
2021/09/12 01:37:53;;;;;;;;;;;27.20;47.60;;;;;;5072435;28;19920;-69
2021/09/12 01:40:20;;;;;;;;;;;27.00;47.30;;;;;;5072799;28;20224;-69
2021/09/12 01:42:46;;;;;;;;;;;26.90;46.70;;;;;;5072486;28;20327;-69
2021/09/12 01:45:13;;;;;;;;;;;27.00;45.70;;;;;;5072728;28;19912;-70
2021/09/12 01:47:45;;;;;;;;;;;27.00;45.80;;;;;;5103267;28;19921;-69
2021/09/12 01:50:13;;;;;;;;;;;27.10;45.80;;;;;;5076274;28;19908;-70
2021/09/12 01:52:39;;;;;;;;;;;27.20;45.40;;;;;;5076198;28;19913;-70
2021/09/12 01:55:06;;;;;;;;;;;27.20;46.80;;;;;;5076302;28;19915;-71
2021/09/12 01:57:33;;;;;;;;;;;27.20;44.80;;;;;;5075661;28;19917;-70
2021/09/12 02:00:00;;;;;;;;;;;27.30;44.00;;;;;;5076248;28;19915;-69
2021/09/12 02:02:26;;;;;;;;;;;27.20;43.90;;;;;;5075418;28;20365;-70
2021/09/12 02:04:53;;;;;;;;;;;27.30;43.50;;;;;;5075945;28;20288;-70
2021/09/12 02:07:19;;;;;;;;;;;27.30;44.20;;;;;;5076136;28;19909;-70
2021/09/12 02:09:46;;;;;;;;;;;27.20;44.50;;;;;;5075758;28;19970;-69
2021/09/12 02:12:13;;;;;;;;;;;27.30;44.10;;;;;;5075888;28;20661;-70
2021/09/12 02:14:39;;;;;;;;;;;27.40;42.00;;;;;;5075987;28;19915;-70
2021/09/12 02:17:06;;;;;;;;;;;27.30;43.40;;;;;;5075039;28;20007;-70
2021/09/12 02:19:33;;;;;;;;;;;27.30;44.20;;;;;;5075631;28;19909;-69
2021/09/12 02:21:59;;;;;;;;;;;27.30;43.90;;;;;;5075729;28;19957;-70
2021/09/12 02:24:26;;;;;;;;;;;27.20;43.70;;;;;;5075697;28;19912;-69
2021/09/12 02:26:53;;;;;;;;;;;27.30;42.30;;;;;;5075552;28;19951;-69
2021/09/12 02:29:19;;;;;;;;;;;27.40;42.20;;;;;;5075489;28;19916;-69
2021/09/12 02:31:46;;;;;;;;;;;27.20;41.60;;;;;;5074916;28;19920;-69
2021/09/12 02:34:12;;;;;;;;;;;27.10;43.20;;;;;;5075326;28;19931;-69
2021/09/12 02:36:39;;;;;;;;;;;27.30;41.70;;;;;;5075234;28;20290;-68
2021/09/12 02:39:06;;;;;;;;;;;27.20;40.00;;;;;;5075262;28;20054;-68
2021/09/12 02:41:32;;;;;;;;;;;27.20;40.50;;;;;;5075051;28;19909;-69
2021/09/12 02:43:59;;;;;;;;;;;27.10;38.30;;;;;;5075245;28;19909;-69
2021/09/12 02:46:27;;;;;;;;;;;27.10;38.90;;;;;;5074663;28;19921;-69
2021/09/12 02:48:53;;;;;;;;;;;27.00;38.70;;;;;;5075078;28;19912;-69
2021/09/12 02:51:20;;;;;;;;;;;27.20;37.50;;;;;;5075151;28;19940;-68
2021/09/12 02:53:47;;;;;;;;;;;27.20;36.90;;;;;;5074868;28;19909;-70
2021/09/12 02:56:13;;;;;;;;;;;27.00;38.10;;;;;;5075077;28;19927;-68
2021/09/12 02:58:40;;;;;;;;;;;27.00;38.10;;;;;;5074980;28;20249;-68
2021/09/12 03:01:06;;;;;;;;;;;27.00;38.90;;;;;;5073776;28;19995;-69
2021/09/12 03:03:33;;;;;;;;;;;27.10;40.60;;;;;;5074645;28;19908;-70
2021/09/12 03:06:00;;;;;;;;;;;27.00;39.80;;;;;;5073579;28;20011;-69
2021/09/12 03:08:27;;;;;;;;;;;27.10;38.50;;;;;;5074921;28;19909;-69
2021/09/12 03:10:53;;;;;;;;;;;27.30;38.90;;;;;;5074748;28;20434;-69
2021/09/12 03:13:20;;;;;;;;;;;27.50;38.10;;;;;;5074803;28;20351;-69
2021/09/12 03:15:47;;;;;;;;;;;27.80;36.80;;;;;;5073916;28;19978;-68
2021/09/12 03:18:13;;;;;;;;;;;27.60;37.10;;;;;;5074759;28;19913;-69
2021/09/12 03:20:40;;;;;;;;;;;27.60;38.00;;;;;;5074664;28;19978;-68
2021/09/12 03:23:07;;;;;;;;;;;27.70;35.90;;;;;;5074506;28;19931;-68
2021/09/12 03:25:34;;;;;;;;;;;27.60;37.10;;;;;;5074350;28;20286;-69
2021/09/12 03:28:00;;;;;;;;;;;27.50;35.00;;;;;;5074548;28;20321;-69
2021/09/12 03:30:27;;;;;;;;;;;27.50;36.40;;;;;;5074074;28;19927;-70
2021/09/12 03:32:54;;;;;;;;;;;27.40;36.60;;;;;;5074636;28;19916;-68
2021/09/12 03:35:20;;;;;;;;;;;27.60;34.80;;;;;;5074451;28;20271;-68
2021/09/12 03:37:47;;;;;;;;;;;27.40;35.90;;;;;;5074065;28;20359;-69
2021/09/12 03:40:14;;;;;;;;;;;27.40;38.90;;;;;;5074385;28;19908;-67
2021/09/12 03:42:40;;;;;;;;;;;27.30;36.60;;;;;;5074225;28;19916;-68
2021/09/12 03:45:07;;;;;;;;;;;27.30;35.70;;;;;;5073845;28;20267;-70
2021/09/12 03:47:34;;;;;;;;;;;27.30;38.00;;;;;;5073491;28;20371;-69
2021/09/12 03:50:01;;;;;;;;;;;27.30;37.50;;;;;;5073846;28;20356;-68
2021/09/12 03:52:27;;;;;;;;;;;27.40;35.30;;;;;;5073843;28;19931;-69
2021/09/12 03:54:54;;;;;;;;;;;27.40;37.90;;;;;;5073908;28;19908;-69
2021/09/12 03:57:23;;;;;;;;;;;27.40;35.30;;;;;;5073776;28;19920;-69
2021/09/12 03:59:51;;;;;;;;;;;27.30;36.00;;;;;;5073490;28;20278;-69
2021/09/12 04:02:19;;;;;;;;;;;27.50;36.50;;;;;;5073229;28;19916;-69
2021/09/12 04:04:45;;;;;;;;;;;27.40;37.70;;;;;;5074161;28;19919;-69
2021/09/12 04:07:12;;;;;;;;;;;27.40;34.80;;;;;;5074129;28;20015;-69
2021/09/12 04:09:39;;;;;;;;;;;27.30;35.90;;;;;;5073996;28;19909;-69
2021/09/12 04:12:05;;;;;;;;;;;27.40;36.40;;;;;;5072920;28;19913;-69
2021/09/12 04:14:32;;;;;;;;;;;27.40;34.60;;;;;;5073551;28;19909;-69
2021/09/12 04:16:59;;;;;;;;;;;27.40;34.90;;;;;;5073377;28;19916;-68
2021/09/12 04:19:25;;;;;;;;;;;27.40;36.20;;;;;;5090107;28;20282;-68
2021/09/12 04:21:52;;;;;;;;;;;27.40;37.10;;;;;;5093608;28;19908;-68
2021/09/12 04:24:20;;;;;;;;;;;27.50;36.10;;;;;;5093666;28;19908;-68
2021/09/12 04:26:47;;;;;;;;;;;27.60;35.90;;;;;;5093643;28;19913;-69
2021/09/12 04:29:14;;;;;;;;;;;27.70;34.20;;;;;;5093921;28;20355;-68
2021/09/12 04:31:40;;;;;;;;;;;27.60;34.90;;;;;;5093283;28;19908;-68
2021/09/12 04:34:07;;;;;;;;;;;27.50;36.40;;;;;;5094207;28;19911;-69
2021/09/12 04:36:33;;;;;;;;;;;27.40;36.00;;;;;;5093494;28;19962;-69
2021/09/12 04:39:00;;;;;;;;;;;27.30;35.90;;;;;;5093518;28;19911;-68
2021/09/12 04:41:27;;;;;;;;;;;27.30;36.50;;;;;;5093367;28;19908;-69
2021/09/12 04:43:53;;;;;;;;;;;27.40;36.50;;;;;;5093137;28;19915;-69
2021/09/12 04:46:20;;;;;;;;;;;27.30;36.00;;;;;;5093001;28;19920;-69
2021/09/12 04:48:47;;;;;;;;;;;27.40;37.20;;;;;;5093681;28;19920;-69
2021/09/12 04:51:14;;;;;;;;;;;27.30;35.00;;;;;;5093379;28;19951;-69
2021/09/12 04:53:40;;;;;;;;;;;27.30;35.20;;;;;;5093232;28;19931;-69
2021/09/12 04:56:07;;;;;;;;;;;27.40;36.50;;;;;;5093378;28;19920;-67
2021/09/12 04:58:34;;;;;;;;;;;27.40;36.40;;;;;;5091508;28;19916;-69
2021/09/12 05:01:00;;;;;;;;;;;27.40;35.60;;;;;;5090714;28;19908;-68
2021/09/12 05:03:27;;;;;;;;;;;27.40;36.10;;;;;;5092996;28;19975;-69
2021/09/12 05:05:54;;;;;;;;;;;27.40;34.40;;;;;;5093012;28;20009;-68
2021/09/12 05:08:20;;;;;;;;;;;27.50;35.70;;;;;;5093179;28;19908;-68
2021/09/12 05:10:47;;;;;;;;;;;27.40;35.40;;;;;;5092862;28;20366;-68
2021/09/12 05:13:14;;;;;;;;;;;27.30;34.70;;;;;;5092243;28;19908;-68
2021/09/12 05:15:43;;;;;;;;;;;27.20;35.60;;;;;;5092497;28;20011;-69
2021/09/12 05:18:10;;;;;;;;;;;27.00;35.40;;;;;;5092758;28;19912;-69
2021/09/12 05:20:37;;;;;;;;;;;27.30;35.60;;;;;;5092824;28;19908;-71
2021/09/12 05:23:04;;;;;;;;;;;27.30;36.10;;;;;;5092529;28;19908;-69
2021/09/12 05:25:32;;;;;;;;;;;27.20;35.20;;;;;;5092315;28;19908;-69
2021/09/12 05:27:59;;;;;;;;;;;27.10;34.90;;;;;;5092105;28;19909;-69
2021/09/12 05:30:25;;;;;;;;;;;27.20;35.50;;;;;;5092758;28;20003;-69
2021/09/12 05:32:52;;;;;;;;;;;27.10;35.80;;;;;;5092597;28;19915;-70
2021/09/12 05:35:19;;;;;;;;;;;27.00;35.90;;;;;;5092566;28;20380;-70
2021/09/12 05:37:46;;;;;;;;;;;27.00;38.00;;;;;;5092497;28;19927;-69
2021/09/12 05:40:13;;;;;;;;;;;27.10;35.40;;;;;;5092448;28;19931;-70
2021/09/12 05:42:40;;;;;;;;;;;27.30;34.80;;;;;;5091838;28;19908;-69
2021/09/12 05:45:07;;;;;;;;;;;27.20;34.70;;;;;;5092168;28;19954;-68
2021/09/12 05:47:34;;;;;;;;;;;27.20;35.80;;;;;;5091908;28;19972;-70
2021/09/12 05:50:01;;;;;;;;;;;27.20;35.50;;;;;;5092490;28;19908;-68
2021/09/12 05:52:28;;;;;;;;;;;27.10;35.80;;;;;;5092487;28;19908;-69
2021/09/12 05:54:54;;;;;;;;;;;27.10;35.20;;;;;;5092113;28;19916;-69
2021/09/12 05:57:21;;;;;;;;;;;27.00;36.20;;;;;;5092221;28;19916;-68
2021/09/12 05:59:48;;;;;;;;;;;26.80;36.40;;;;;;5091906;28;19955;-69
2021/09/12 06:02:16;;;;;;;;;;;26.90;35.70;;;;;;5092088;28;19908;-68
2021/09/12 06:04:43;;;;;;;;;;;26.80;36.40;;;;;;5092089;28;19908;-68
2021/09/12 06:07:10;;;;;;;;;;;26.90;35.70;;;;;;5092311;28;19912;-68
2021/09/12 06:09:38;;;;;;;;;;;27.00;35.80;;;;;;5091966;28;20286;-68
2021/09/12 06:12:06;;;;;;;;;;;27.00;37.00;;;;;;5092036;28;20370;-69
2021/09/12 06:14:32;;;;;;;;;;;27.10;36.20;;;;;;5092378;28;19908;-68
2021/09/12 06:17:01;;;;;;;;;;;26.90;37.20;;;;;;5091831;28;19924;-68
2021/09/12 06:19:28;;;;;;;;;;;26.80;36.80;;;;;;5092001;28;19915;-68
2021/09/12 06:21:54;;;;;;;;;;;26.70;36.90;;;;;;5092207;28;19908;-68
2021/09/12 06:24:21;;;;;;;;;;;26.80;36.60;;;;;;5091855;28;19908;-68
2021/09/12 06:26:48;;;;;;;;;;;26.80;37.40;;;;;;5092048;28;20002;-68
2021/09/12 06:29:14;;;;;;;;;;;26.70;37.50;;;;;;5092226;28;20260;-68
2021/09/12 06:31:41;;;;;;;;;;;26.60;37.20;;;;;;5091823;28;19915;-69
2021/09/12 06:34:08;;;;;;;;;;;26.60;36.70;;;;;;5092134;28;20440;-69
2021/09/12 06:36:34;;;;;;;;;;;26.70;36.20;;;;;;5094804;28;19969;-68
2021/09/12 06:39:01;;;;;;;;;;;26.60;37.60;;;;;;5095800;28;19908;-69
2021/09/12 06:41:27;;;;;;;;;;;26.40;37.40;;;;;;5095850;28;19934;-69
2021/09/12 06:43:54;;;;;;;;;;;26.40;37.20;;;;;;5095446;28;19916;-69
2021/09/12 06:46:21;;;;;;;;;;;26.30;37.90;;;;;;5095356;28;19908;-69
2021/09/12 06:48:48;;;;;;;;;;;26.40;37.00;;;;;;5095633;28;19969;-69
2021/09/12 06:51:14;;;;;;;;;;;26.40;37.10;;;;;;5095592;28;19931;-69
2021/09/12 06:53:41;;;;;;;;;;;26.60;38.10;;;;;;5095388;28;20420;-69
2021/09/12 06:56:07;;;;;;;;;;;26.40;37.80;;;;;;5095554;28;19916;-69
2021/09/12 06:58:34;;;;;;;;;;;26.50;36.90;;;;;;5095303;28;19908;-69
2021/09/12 07:01:01;;;;;;;;;;;26.50;39.00;;;;;;5095191;28;19943;-69
2021/09/12 07:03:28;;;;;;;;;;;26.40;36.90;;;;;;5095319;28;19926;-69
2021/09/12 07:05:55;;;;;;;;;;;26.30;37.50;;;;;;5094801;28;19915;-70
2021/09/12 07:08:21;;;;;;;;;;;26.20;38.60;;;;;;5095553;28;19961;-70
2021/09/12 07:10:48;;;;;;;;;;;26.00;38.80;;;;;;5095244;28;19909;-69
2021/09/12 07:13:14;;;;;;;;;;;26.10;38.70;;;;;;5077838;28;19974;-70
2021/09/12 07:15:41;;;;;;;;;;;26.00;38.20;;;;;;5074528;28;19938;-70
2021/09/12 07:18:08;;;;;;;;;;;25.90;39.00;;;;;;5107388;28;19913;-69
2021/09/12 07:20:34;;;;;;;;;;;25.90;38.40;;;;;;5074706;28;19909;-69
2021/09/12 07:23:02;;;;;;;;;;;25.90;38.50;;;;;;5074539;28;19916;-69
2021/09/12 07:25:29;;;;;;;;;;;25.80;39.30;;;;;;5074615;28;20358;-69
2021/09/12 07:27:55;;;;;;;;;;;25.80;39.40;;;;;;5074128;28;19958;-70
2021/09/12 07:30:22;;;;;;;;;;;25.70;39.20;;;;;;5074410;28;20007;-69
2021/09/12 07:32:49;;;;;;;;;;;25.60;39.20;;;;;;5075097;28;19915;-69
2021/09/12 07:35:15;;;;;;;;;;;25.60;39.20;;;;;;5074422;28;19912;-69
2021/09/12 07:37:42;;;;;;;;;;;25.50;39.60;;;;;;5074072;28;20006;-69
2021/09/12 07:40:09;;;;;;;;;;;25.60;40.50;;;;;;5074279;28;19962;-69
2021/09/12 07:42:36;;;;;;;;;;;25.50;40.40;;;;;;5073733;28;19999;-69
2021/09/12 07:45:02;;;;;;;;;;;25.50;39.30;;;;;;5074115;28;19954;-69
2021/09/12 07:47:29;;;;;;;;;;;25.30;39.90;;;;;;5073643;28;19981;-69
2021/09/12 07:49:56;;;;;;;;;;;25.30;41.00;;;;;;5074040;28;20268;-69
2021/09/12 07:52:22;;;;;;;;;;;25.30;39.20;;;;;;5074099;28;19908;-69
2021/09/12 07:54:49;;;;;;;;;;;25.50;38.60;;;;;;5074389;28;19909;-68
2021/09/12 07:57:16;;;;;;;;;;;25.60;39.20;;;;;;5073319;28;19927;-69
2021/09/12 07:59:42;;;;;;;;;;;25.50;39.40;;;;;;5073787;28;19969;-69
2021/09/12 08:02:09;;;;;;;;;;;25.40;39.40;;;;;;5073817;28;20330;-69
2021/09/12 08:04:36;;;;;;;;;;;25.30;38.60;;;;;;5073894;28;19912;-69
2021/09/12 08:07:02;;;;;;;;;;;25.50;38.60;;;;;;5074022;28;19909;-68
2021/09/12 08:09:30;;;;;;;;;;;25.40;39.10;;;;;;5073772;28;19943;-69
2021/09/12 08:11:57;;;;;;;;;;;25.40;39.80;;;;;;5073098;28;19909;-69
2021/09/12 08:14:23;;;;;;;;;;;25.30;39.10;;;;;;5073761;28;19999;-69
2021/09/12 08:16:50;;;;;;;;;;;25.20;40.40;;;;;;5073143;28;19924;-69
2021/09/12 08:19:17;;;;;;;;;;;25.10;39.80;;;;;;5073581;28;19909;-69
2021/09/12 08:21:43;;;;;;;;;;;25.10;41.70;;;;;;5073421;28;20469;-70
2021/09/12 08:24:10;;;;;;;;;;;24.90;40.50;;;;;;5073496;28;19966;-68
2021/09/12 08:26:37;;;;;;;;;;;24.90;41.20;;;;;;5073007;28;19940;-69
2021/09/12 08:29:04;;;;;;;;;;;24.80;41.60;;;;;;5073514;28;19909;-68
2021/09/12 08:31:30;;;;;;;;;;;24.70;42.20;;;;;;5072989;28;19912;-68
2021/09/12 08:33:57;;;;;;;;;;;24.50;43.00;;;;;;5073598;28;19909;-68
2021/09/12 08:36:24;;;;;;;;;;;24.40;42.70;;;;;;5073395;28;19917;-68
2021/09/12 08:38:50;;;;;;;;;;;24.30;42.80;;;;;;5073416;28;19909;-69
2021/09/12 08:41:18;;;;;;;;;;;24.30;43.60;;;;;;5072893;28;19909;-69
2021/09/12 08:43:46;;;;;;;;;;;24.20;43.80;;;;;;5073142;28;20317;-69
2021/09/12 08:46:14;;;;;;;;;;;24.20;44.00;;;;;;5072852;28;19957;-68
2021/09/12 08:48:41;;;;;;;;;;;24.20;44.20;;;;;;5072999;28;19916;-69
2021/09/12 08:51:08;;;;;;;;;;;24.20;43.10;;;;;;5073036;28;20272;-69
2021/09/12 08:53:34;;;;;;;;;;;24.20;44.30;;;;;;5072677;28;20278;-69
2021/09/12 08:56:01;;;;;;;;;;;24.20;44.00;;;;;;5072274;28;19913;-69
2021/09/12 08:58:28;;;;;;;;;;;24.10;44.90;;;;;;5072229;28;19909;-69
2021/09/12 09:00:58;;;;;;;;;;;24.00;45.10;;;;;;5072675;28;20375;-69
2021/09/12 09:03:35;;;;;;;;;;;24.00;45.60;;;;;;5072358;28;20071;-69
2021/09/12 09:06:12;;;;;;;;;;;24.00;45.30;;;;;;5071198;28;19908;-69
2021/09/12 09:08:49;;;;;;;;;;;23.90;45.20;;;;;;5071370;28;19915;-69
2021/09/12 09:11:15;;;;;;;;;;;23.90;46.00;;;;;;5070572;28;19909;-69
2021/09/12 09:13:42;;;;;;;;;;;24.00;47.30;;;;;;5069944;28;19908;-69
2021/09/12 09:16:09;;;;;;;;;;;24.00;47.70;;;;;;5071132;28;20236;-69
2021/09/12 09:18:40;;;;;;;;;;;24.00;48.20;;;;;;5071498;28;20366;-69
2021/09/12 09:21:26;;;;;;;;;;;23.90;48.50;;;;;;5071249;28;19912;-69
2021/09/12 09:24:11;;;;;;;;;;;23.90;49.00;;;;;;5070230;28;20003;-69
2021/09/12 09:26:39;;;;;;;;;;;23.80;49.10;;;;;;5070082;28;19954;-69
2021/09/12 09:29:06;;;;;;;;;;;23.80;50.00;;;;;;5071228;28;20329;-70
2021/09/12 09:31:33;;;;;;;;;;;23.70;49.70;;;;;;5069188;28;19916;-69
2021/09/12 09:34:13;;;;;;;;;;;23.70;50.00;;;;;;5070812;28;20279;-69
2021/09/12 09:36:40;;;;;;;;;;;23.60;50.60;;;;;;5071523;28;20256;-69
2021/09/12 09:39:06;;;;;;;;;;;23.50;50.90;;;;;;5072404;28;20256;-69
2021/09/12 09:41:37;;;;;;;;;;;23.50;51.50;;;;;;5071603;28;19930;-69
2021/09/12 09:44:13;;;;;;;;;;;23.50;51.50;;;;;;5072032;28;20422;-69
2021/09/12 09:46:44;;;;;;;;;;;23.40;51.80;;;;;;5071900;28;19912;-68
2021/09/12 09:49:24;;;;;;;;;;;23.40;52.10;;;;;;5072205;28;20383;-69
2021/09/12 09:51:54;;;;;;;;;;;23.40;52.10;;;;;;5072085;28;19909;-69
2021/09/12 09:54:21;;;;;;;;;;;23.40;52.30;;;;;;5072359;28;20264;-69
2021/09/12 09:56:49;;;;;;;;;;;23.30;52.50;;;;;;5071520;28;20015;-69
2021/09/12 09:59:16;;;;;;;;;;;23.30;52.60;;;;;;5072231;28;19913;-68
2021/09/12 10:01:43;;;;;;;;;;;23.20;52.60;;;;;;5071821;28;19914;-68
2021/09/12 10:04:13;;;;;;;;;;;23.20;53.00;;;;;;5072204;28;19908;-69
2021/09/12 10:06:41;;;;;;;;;;;23.20;52.90;;;;;;5072048;28;19909;-69
2021/09/12 10:09:09;;;;;;;;;;;23.20;53.10;;;;;;5072006;28;20335;-69
2021/09/12 10:11:36;;;;;;;;;;;23.20;53.40;;;;;;5074193;28;19930;-69
2021/09/12 10:14:04;;;;;;;;;;;23.10;53.50;;;;;;5076226;28;19915;-69
2021/09/12 10:16:31;;;;;;;;;;;23.10;53.60;;;;;;5075909;28;19913;-69
2021/09/12 10:18:57;;;;;;;;;;;23.00;54.00;;;;;;5076011;28;19961;-69
2021/09/12 10:21:28;;;;;;;;;;;23.00;53.90;;;;;;5075724;28;19908;-69
2021/09/12 10:24:02;;;;;;;;;;;23.00;54.00;;;;;;5075849;28;19909;-69
2021/09/12 10:26:31;;;;;;;;;;;23.00;54.10;;;;;;5075369;28;19940;-69
2021/09/12 10:28:57;;;;;;;;;;;22.90;54.00;;;;;;5075708;28;20315;-68
2021/09/12 10:31:27;;;;;;;;;;;22.90;54.40;;;;;;5075681;28;19988;-68
2021/09/12 10:34:25;;;;;;;;;;;22.90;54.80;;;;;;5075455;28;19915;-69
2021/09/12 10:36:52;;;;;;;;;;;22.80;54.90;;;;;;5063223;28;19916;-69
2021/09/12 10:39:25;;;;;;;;;;;22.80;55.00;;;;;;5075721;28;20003;-69
2021/09/12 10:42:14;;;;;;;;;;;22.70;54.90;;;;;;5074792;28;20378;-69
2021/09/12 10:44:41;;;;;;;;;;;22.60;55.00;;;;;;5075213;28;19909;-69
2021/09/12 10:47:09;;;;;;;;;;;22.70;54.00;;;;;;5075245;28;19927;-69
2021/09/12 10:49:36;;;;;;;;;;;22.60;53.60;;;;;;5075018;28;19916;-69
2021/09/12 10:52:03;;;;;;;;;;;22.50;53.30;;;;;;5075346;28;19983;-69
2021/09/12 10:54:31;;;;;;;;;;;22.50;53.60;;;;;;5075211;28;19908;-69
2021/09/12 10:57:08;;;;;;;;;;;22.40;53.80;;;;;;5074449;28;20319;-70
2021/09/12 10:59:35;;;;;;;;;;;22.40;54.20;;;;;;5074671;28;19956;-70
2021/09/12 11:02:01;;;;;;;;;;;22.40;54.70;;;;;;5075131;28;19939;-70
2021/09/12 11:04:32;;;;;;;;;;;22.30;54.70;;;;;;5074976;28;19938;-69
2021/09/12 11:07:03;;;;;;;;;;;22.20;54.70;;;;;;5074883;28;19915;-69
2021/09/12 11:09:31;;;;;;;;;;;22.20;54.70;;;;;;5074846;28;20015;-68
2021/09/12 11:12:04;;;;;;;;;;;22.10;54.90;;;;;;5074197;28;19912;-68
2021/09/12 11:14:33;;;;;;;;;;;22.10;54.80;;;;;;5074966;28;19923;-68
2021/09/12 11:17:06;;;;;;;;;;;22.00;56.00;;;;;;5074732;28;19916;-68
2021/09/12 11:19:33;;;;;;;;;;;21.90;73.90;;;;;;5074458;28;20024;-69
2021/09/12 11:21:59;;;;;;;;;;;21.60;78.60;;;;;;5074267;28;19951;-69
2021/09/12 11:24:27;;;;;;;;;;;21.50;80.60;;;;;;5074829;28;20095;-68
2021/09/12 11:27:01;;;;;;;;;;;21.30;84.60;;;;;;5074040;28;20390;-69
2021/09/12 11:29:32;;;;;;;;;;;21.30;87.40;;;;;;5074522;28;19913;-69
2021/09/12 11:32:00;;;;;;;;;;;21.10;90.30;;;;;;5074757;28;19979;-69
2021/09/12 11:34:27;;;;;;;;;;;21.00;91.20;;;;;;5074660;28;19909;-69
2021/09/12 11:37:04;;;;;;;;;;;20.90;91.10;;;;;;5074283;28;19974;-69
2021/09/12 11:39:32;;;;;;;;;;;20.80;88.10;;;;;;5074362;28;20003;-69
2021/09/12 11:41:59;;;;;;;;;;;20.70;89.10;;;;;;5073900;28;19908;-68
2021/09/12 11:44:36;;;;;;;;;;;20.60;87.20;;;;;;5073910;28;19919;-68
2021/09/12 11:47:06;;;;;;;;;;;20.70;83.30;;;;;;5073999;28;20394;-69
2021/09/12 11:49:33;;;;;;;;;;;20.60;82.70;;;;;;5074173;28;19912;-69
2021/09/12 11:52:00;;;;;;;;;;;20.60;82.90;;;;;;5074261;28;19947;-69
2021/09/12 11:54:27;;;;;;;;;;;20.50;84.20;;;;;;5074044;28;20342;-69
2021/09/12 11:56:55;;;;;;;;;;;20.40;83.60;;;;;;5073363;28;20132;-68
2021/09/12 11:59:22;;;;;;;;;;;20.30;80.70;;;;;;5073826;28;20381;-69
2021/09/12 12:01:50;;;;;;;;;;;20.20;78.30;;;;;;5073457;28;19909;-68
2021/09/12 12:04:17;;;;;;;;;;;20.20;78.80;;;;;;5073944;28;19991;-68
2021/09/12 12:06:48;;;;;;;;;;;20.00;78.10;;;;;;5073806;28;19909;-68
2021/09/12 12:09:17;;;;;;;;;;;19.90;78.40;;;;;;5073885;28;19998;-69
2021/09/12 12:11:45;;;;;;;;;;;19.80;78.80;;;;;;5073014;28;19909;-69
2021/09/12 12:14:19;;;;;;;;;;;19.50;79.40;;;;;;5073386;28;20003;-68
2021/09/12 12:16:46;;;;;;;;;;;19.40;79.60;;;;;;5073619;28;19927;-68
2021/09/12 12:19:14;;;;;;;;;;;19.30;80.30;;;;;;5073481;28;19963;-69
2021/09/12 12:21:41;;;;;;;;;;;19.30;80.40;;;;;;5073289;28;19908;-68
2021/09/12 12:24:12;;;;;;;;;;;19.20;80.40;;;;;;5073741;28;19912;-68
2021/09/12 12:26:40;;;;;;;;;;;19.10;80.60;;;;;;5073044;28;19991;-68
2021/09/12 12:29:07;;;;;;;;;;;19.00;80.30;;;;;;5073415;28;20033;-68
2021/09/12 12:31:35;;;;;;;;;;;18.80;80.50;;;;;;5073245;28;19954;-68
2021/09/12 12:34:02;;;;;;;;;;;18.80;81.00;;;;;;5072511;28;19939;-68
2021/09/12 12:36:28;;;;;;;;;;;18.70;81.70;;;;;;5073197;28;19913;-68
2021/09/12 12:38:55;;;;;;;;;;;18.60;82.00;;;;;;5073210;28;19919;-68
2021/09/12 12:41:25;;;;;;;;;;;18.60;82.50;;;;;;5072768;28;19962;-68
2021/09/12 12:43:52;;;;;;;;;;;18.50;82.60;;;;;;5072397;28;20289;-68
2021/09/12 12:46:19;;;;;;;;;;;18.40;82.40;;;;;;5073012;28;19912;-68
2021/09/12 12:48:47;;;;;;;;;;;18.30;81.90;;;;;;5073024;28;20321;-69
2021/09/12 12:51:16;;;;;;;;;;;18.20;82.00;;;;;;5073134;28;19908;-68
2021/09/12 12:53:49;;;;;;;;;;;18.00;81.40;;;;;;5072967;28;19923;-68
2021/09/12 12:56:17;;;;;;;;;;;17.90;81.20;;;;;;5072777;28;19917;-68
2021/09/12 12:58:45;;;;;;;;;;;17.80;81.00;;;;;;5072853;28;19909;-68
2021/09/12 13:01:12;;;;;;;;;;;17.80;80.70;;;;;;5072933;28;19909;-68
2021/09/12 13:03:39;;;;;;;;;;;17.70;80.70;;;;;;5072682;28;19915;-68
2021/09/12 13:06:07;;;;;;;;;;;17.70;81.00;;;;;;5072854;28;20274;-68
2021/09/12 13:08:34;;;;;;;;;;;17.70;79.70;;;;;;5072705;28;20367;-68
2021/09/12 13:11:00;;;;;;;;;;;17.60;79.60;;;;;;5072718;28;20355;-68
2021/09/12 13:13:27;;;;;;;;;;;17.50;78.30;;;;;;5072575;28;19909;-69
2021/09/12 13:15:54;;;;;;;;;;;17.40;77.70;;;;;;5072475;28;19991;-68
2021/09/12 13:18:21;;;;;;;;;;;17.40;77.60;;;;;;5072742;28;19955;-69
2021/09/12 13:20:50;;;;;;;;;;;17.40;77.30;;;;;;5072736;28;19948;-69
2021/09/12 13:23:17;;;;;;;;;;;17.40;77.70;;;;;;5072603;28;19940;-68
2021/09/12 13:25:44;;;;;;;;;;;17.30;78.10;;;;;;5072446;28;20287;-69
2021/09/12 13:28:10;;;;;;;;;;;17.40;76.30;;;;;;5072526;28;20003;-68
2021/09/12 13:30:37;;;;;;;;;;;17.30;76.10;;;;;;5072372;28;19908;-69
2021/09/12 13:33:04;;;;;;;;;;;17.30;76.30;;;;;;5072423;28;19908;-68
2021/09/12 13:35:31;;;;;;;;;;;17.20;76.40;;;;;;5072281;28;19915;-69
2021/09/12 13:37:58;;;;;;;;;;;17.30;76.80;;;;;;5072283;28;20302;-69
2021/09/12 13:40:25;;;;;;;;;;;17.30;75.40;;;;;;5072420;28;19916;-69
2021/09/12 13:42:52;;;;;;;;;;;17.20;75.20;;;;;;5072507;28;19909;-68
2021/09/12 13:45:19;;;;;;;;;;;17.20;74.50;;;;;;5072358;28;20256;-68
2021/09/12 13:47:45;;;;;;;;;;;17.30;74.10;;;;;;5071994;28;20476;-68
2021/09/12 13:50:12;;;;;;;;;;;17.20;73.40;;;;;;5072480;28;19909;-69
2021/09/12 13:52:39;;;;;;;;;;;17.10;74.10;;;;;;5072369;28;20003;-68
2021/09/12 13:55:07;;;;;;;;;;;17.10;72.40;;;;;;5072334;28;20275;-69
2021/09/12 13:57:33;;;;;;;;;;;17.10;72.90;;;;;;5071968;28;20014;-69
2021/09/12 14:00:00;;;;;;;;;;;17.00;72.70;;;;;;5072099;28;19935;-68
2021/09/12 14:02:27;;;;;;;;;;;17.00;73.20;;;;;;5071114;28;19909;-70
2021/09/12 14:04:54;;;;;;;;;;;17.00;72.70;;;;;;5072492;28;19912;-69
2021/09/12 14:07:21;;;;;;;;;;;17.00;73.10;;;;;;5072304;28;19912;-69
2021/09/12 14:09:48;;;;;;;;;;;17.00;71.30;;;;;;5072186;28;19916;-69
2021/09/12 14:12:14;;;;;;;;;;;16.90;71.10;;;;;;5072370;28;19940;-70
2021/09/12 14:14:41;;;;;;;;;;;16.90;71.20;;;;;;5072163;28;19991;-69
2021/09/12 14:17:07;;;;;;;;;;;16.90;70.70;;;;;;5071943;28;20457;-69
2021/09/12 14:19:34;;;;;;;;;;;16.90;70.40;;;;;;5071949;28;19916;-69